createdAt,value
2017-06-25T00:00:49.105Z,30.5
2017-06-25T00:03:22.241Z,30.5
2017-06-25T00:04:24.377Z,30.5
2017-06-25T00:05:25.831Z,30.5
2017-06-25T00:06:27.652Z,30.5
2017-06-25T00:07:29.457Z,30.5
2017-06-25T00:08:31.258Z,30.6
2017-06-25T00:09:32.726Z,30.5
2017-06-25T00:10:34.173Z,30.6
2017-06-25T00:11:35.952Z,30.5
2017-06-25T00:12:37.759Z,30.5
2017-06-25T00:13:39.897Z,30.5
2017-06-25T00:14:41.700Z,30.5
2017-06-25T00:15:43.841Z,30.5
2017-06-25T00:16:45.978Z,30.5
2017-06-25T00:17:48.117Z,30.4
2017-06-25T00:18:49.899Z,30.5
2017-06-25T00:19:51.689Z,30.5
2017-06-25T00:20:53.497Z,30.6
2017-06-25T00:21:55.300Z,30.4
2017-06-25T00:22:57.103Z,30.4
2017-06-25T00:23:59.239Z,30.5
2017-06-25T00:25:01.044Z,30.5
2017-06-25T00:26:02.848Z,30.4
2017-06-25T00:27:04.652Z,30.5
2017-06-25T00:28:06.788Z,30.5
2017-06-25T00:29:07.903Z,30.4
2017-06-25T00:30:09.708Z,30.5
2017-06-25T00:31:11.156Z,30.6
2017-06-25T00:32:13.293Z,30.5
2017-06-25T00:33:14.739Z,30.5
2017-06-25T00:34:16.877Z,30.5
2017-06-25T00:35:18.347Z,30.4
2017-06-25T00:36:20.484Z,30.5
2017-06-25T00:37:21.656Z,30.4
2017-06-25T00:38:23.443Z,30.5
2017-06-25T00:39:25.241Z,30.5
2017-06-25T00:40:27.378Z,30.4
2017-06-25T00:41:29.176Z,30.5
2017-06-25T00:42:31.321Z,30.4
2017-06-25T00:43:33.122Z,30.4
2017-06-25T00:44:34.927Z,30.5
2017-06-25T00:45:36.728Z,30.4
2017-06-25T00:46:38.532Z,30.5
2017-06-25T00:47:40.312Z,30.5
2017-06-25T00:48:42.457Z,30.5
2017-06-25T00:49:44.261Z,30.5
2017-06-25T00:50:46.399Z,30.4
2017-06-25T00:51:48.537Z,30.4
2017-06-25T00:52:50.687Z,30.4
2017-06-25T00:53:52.488Z,30.4
2017-06-25T00:54:54.296Z,30.4
2017-06-25T00:55:56.429Z,30.5
2017-06-25T00:56:58.233Z,30.4
2017-06-25T00:58:00.015Z,30.4
2017-06-25T00:59:01.798Z,30.4
2017-06-25T01:00:03.933Z,30.4
2017-06-25T01:01:05.717Z,30.4
2017-06-25T01:02:07.858Z,30.4
2017-06-25T01:03:09.642Z,30.5
2017-06-25T01:04:11.430Z,30.4
2017-06-25T01:05:13.569Z,30.5
2017-06-25T01:06:15.373Z,30.5
2017-06-25T01:07:17.511Z,30.4
2017-06-25T01:08:19.649Z,30.5
2017-06-25T01:09:21.788Z,30.4
2017-06-25T01:10:23.943Z,30.4
2017-06-25T01:11:25.751Z,30.4
2017-06-25T01:12:27.205Z,30.4
2017-06-25T01:13:29.341Z,30.5
2017-06-25T01:14:31.478Z,30.4
2017-06-25T01:15:33.281Z,30.4
2017-06-25T01:16:35.085Z,30.5
2017-06-25T01:17:36.869Z,30.4
2017-06-25T01:18:39.006Z,30.4
2017-06-25T01:19:41.144Z,30.4
2017-06-25T01:20:43.281Z,30.4
2017-06-25T01:21:45.419Z,30.3
2017-06-25T01:22:46.892Z,30.3
2017-06-25T01:23:48.696Z,30.5
2017-06-25T01:24:50.834Z,30.5
2017-06-25T01:25:52.655Z,30.3
2017-06-25T01:26:54.455Z,30.4
2017-06-25T01:27:55.923Z,30.3
2017-06-25T01:28:57.730Z,30.4
2017-06-25T01:29:59.552Z,30.4
2017-06-25T01:31:01.366Z,30.4
2017-06-25T01:32:03.504Z,30.4
2017-06-25T01:33:05.318Z,30.4
2017-06-25T01:34:07.120Z,30.3
2017-06-25T01:35:08.924Z,30.3
2017-06-25T01:36:11.062Z,30.3
2017-06-25T01:37:12.867Z,30.3
2017-06-25T01:38:15.007Z,30.4
2017-06-25T01:39:16.817Z,30.4
2017-06-25T01:40:18.956Z,30.3
2017-06-25T01:41:21.092Z,30.3
2017-06-25T01:42:22.899Z,30.4
2017-06-25T01:43:25.037Z,30.4
2017-06-25T01:44:26.501Z,30.3
2017-06-25T01:45:27.973Z,30.4
2017-06-25T01:46:29.788Z,30.3
2017-06-25T01:47:31.568Z,30.4
2017-06-25T01:48:33.352Z,30.4
2017-06-25T01:49:34.802Z,30.4
2017-06-25T01:50:36.939Z,30.3
2017-06-25T01:51:38.410Z,30.3
2017-06-25T01:52:40.560Z,30.4
2017-06-25T01:53:42.054Z,30.4
2017-06-25T01:54:43.503Z,30.3
2017-06-25T01:55:45.283Z,30.3
2017-06-25T01:56:47.086Z,30.3
2017-06-25T01:57:48.556Z,30.4
2017-06-25T01:58:50.362Z,30.3
2017-06-25T01:59:52.498Z,30.4
2017-06-25T02:00:53.950Z,30.4
2017-06-25T02:01:56.093Z,30.3
2017-06-25T02:02:58.229Z,30.4
2017-06-25T02:04:00.066Z,30.3
2017-06-25T02:05:01.869Z,30.3
2017-06-25T02:06:04.023Z,30.3
2017-06-25T02:07:06.167Z,30.3
2017-06-25T02:08:08.303Z,30.3
2017-06-25T02:09:10.111Z,30.3
2017-06-25T02:10:11.937Z,30.3
2017-06-25T02:11:14.069Z,30.3
2017-06-25T02:12:15.876Z,30.3
2017-06-25T02:13:17.348Z,30.3
2017-06-25T02:14:19.484Z,30.3
2017-06-25T02:15:21.288Z,30.3
2017-06-25T02:16:23.425Z,30.2
2017-06-25T02:17:24.872Z,30.4
2017-06-25T02:18:26.657Z,30.3
2017-06-25T02:19:28.107Z,30.3
2017-06-25T02:20:30.244Z,30.3
2017-06-25T02:21:32.051Z,30.3
2017-06-25T02:22:33.834Z,30.3
2017-06-25T02:23:35.618Z,30.2
2017-06-25T02:24:37.399Z,30.3
2017-06-25T02:25:38.909Z,30.3
2017-06-25T02:26:41.207Z,30.4
2017-06-25T02:27:43.009Z,30.3
2017-06-25T02:28:44.457Z,30.3
2017-06-25T02:29:46.241Z,30.3
2017-06-25T02:30:48.377Z,30.2
2017-06-25T02:31:50.176Z,30.3
2017-06-25T02:32:51.982Z,30.3
2017-06-25T02:33:54.130Z,30.3
2017-06-25T02:34:55.582Z,30.3
2017-06-25T02:35:57.433Z,30.3
2017-06-25T02:36:59.212Z,30.3
2017-06-25T02:38:01.351Z,30.3
2017-06-25T02:39:03.489Z,30.3
2017-06-25T02:40:05.290Z,30.3
2017-06-25T02:41:07.428Z,30.3
2017-06-25T02:42:09.569Z,30.2
2017-06-25T02:43:11.373Z,30.3
2017-06-25T02:44:13.176Z,30.3
2017-06-25T02:45:15.314Z,30.2
2017-06-25T02:46:16.432Z,30.3
2017-06-25T02:47:18.569Z,30.3
2017-06-25T02:48:20.705Z,30.3
2017-06-25T02:49:22.154Z,30.3
2017-06-25T02:50:23.605Z,30.2
2017-06-25T02:51:25.390Z,30.2
2017-06-25T02:52:27.171Z,30.3
2017-06-25T02:53:29.310Z,30.3
2017-06-25T02:54:30.760Z,30.2
2017-06-25T02:55:32.567Z,30.3
2017-06-25T02:56:34.374Z,30.3
2017-06-25T02:57:36.161Z,30.2
2017-06-25T02:58:37.632Z,30.3
2017-06-25T02:59:39.773Z,30.3
2017-06-25T03:00:40.887Z,30.3
2017-06-25T03:01:42.676Z,30.3
2017-06-25T03:02:44.481Z,30.3
2017-06-25T03:03:46.288Z,30.3
2017-06-25T03:04:47.760Z,30.3
2017-06-25T03:05:49.233Z,30.3
2017-06-25T03:06:51.037Z,30.3
2017-06-25T03:07:52.828Z,30.3
2017-06-25T03:08:54.273Z,30.2
2017-06-25T03:09:56.418Z,30.3
2017-06-25T03:10:57.862Z,30.3
2017-06-25T03:11:59.646Z,30.3
2017-06-25T03:13:01.448Z,30.2
2017-06-25T03:14:03.587Z,30.3
2017-06-25T03:15:05.393Z,30.3
2017-06-25T03:16:07.530Z,30.3
2017-06-25T03:17:09.669Z,30.3
2017-06-25T03:18:11.476Z,30.3
2017-06-25T03:19:13.611Z,30.3
2017-06-25T03:20:15.415Z,30.2
2017-06-25T03:21:17.552Z,30.2
2017-06-25T03:22:19.006Z,30.3
2017-06-25T03:23:21.145Z,30.2
2017-06-25T03:24:22.929Z,30.3
2017-06-25T03:25:24.736Z,30.3
2017-06-25T03:26:26.191Z,30.3
2017-06-25T03:27:27.995Z,30.3
2017-06-25T03:28:29.470Z,30.2
2017-06-25T03:29:31.603Z,30.2
2017-06-25T03:30:33.407Z,30.3
2017-06-25T03:31:35.543Z,30.3
2017-06-25T03:32:37.328Z,30.2
2017-06-25T03:33:39.132Z,30.3
2017-06-25T03:34:40.936Z,30.3
2017-06-25T03:35:42.741Z,30.2
2017-06-25T03:36:43.856Z,30.3
2017-06-25T03:37:45.993Z,30.3
2017-06-25T03:38:47.802Z,30.2
2017-06-25T03:39:48.946Z,30.3
2017-06-25T03:40:50.415Z,30.3
2017-06-25T03:41:52.198Z,30.4
2017-06-25T03:42:54.003Z,30.3
2017-06-25T03:43:55.473Z,30.3
2017-06-25T03:44:56.944Z,30.3
2017-06-25T03:45:58.749Z,30.4
2017-06-25T03:47:00.555Z,30.3
2017-06-25T03:48:02.691Z,30.3
2017-06-25T03:49:04.829Z,30.3
2017-06-25T03:50:06.283Z,30.3
2017-06-25T03:51:08.421Z,30.3
2017-06-25T03:52:09.870Z,30.3
2017-06-25T03:53:11.674Z,30.4
2017-06-25T03:54:13.863Z,30.2
2017-06-25T03:55:15.645Z,30.3
2017-06-25T03:56:17.806Z,30.3
2017-06-25T03:57:19.944Z,30.3
2017-06-25T03:58:22.080Z,30.3
2017-06-25T03:59:24.222Z,30.3
2017-06-25T04:00:26.022Z,30.2
2017-06-25T04:01:27.826Z,30.3
2017-06-25T04:02:29.967Z,30.3
2017-06-25T04:03:31.433Z,30.3
2017-06-25T04:04:33.236Z,30.3
2017-06-25T04:05:34.360Z,30.3
2017-06-25T04:06:36.499Z,30.3
2017-06-25T04:07:37.954Z,30.2
2017-06-25T04:08:40.096Z,30.3
2017-06-25T04:09:41.545Z,30.3
2017-06-25T04:10:43.347Z,30.3
2017-06-25T04:11:44.814Z,30.3
2017-06-25T04:12:46.595Z,30.3
2017-06-25T04:13:48.409Z,30.2
2017-06-25T04:14:50.545Z,30.3
2017-06-25T04:15:52.326Z,30.4
2017-06-25T04:16:53.450Z,30.3
2017-06-25T04:17:55.588Z,30.4
2017-06-25T04:18:57.728Z,30.3
2017-06-25T04:19:59.504Z,30.4
2017-06-25T04:21:00.953Z,30.2
2017-06-25T04:22:03.090Z,30.3
2017-06-25T04:23:04.226Z,30.3
2017-06-25T04:24:06.363Z,30.4
2017-06-25T04:25:07.836Z,30.3
2017-06-25T04:26:09.642Z,30.3
2017-06-25T04:27:11.113Z,30.3
2017-06-25T04:28:13.250Z,30.3
2017-06-25T04:29:14.698Z,30.3
2017-06-25T04:30:16.506Z,30.4
2017-06-25T04:31:18.315Z,30.3
2017-06-25T04:32:20.108Z,30.4
2017-06-25T04:33:21.560Z,30.3
2017-06-25T04:34:23.700Z,30.4
2017-06-25T04:35:25.503Z,30.3
2017-06-25T04:36:27.310Z,30.3
2017-06-25T04:37:29.101Z,30.4
2017-06-25T04:38:31.238Z,30.4
2017-06-25T04:39:32.687Z,30.3
2017-06-25T04:40:34.502Z,30.3
2017-06-25T04:41:36.304Z,30.3
2017-06-25T04:42:37.780Z,30.3
2017-06-25T04:43:39.920Z,30.3
2017-06-25T04:44:42.062Z,30.3
2017-06-25T04:45:43.843Z,30.2
2017-06-25T04:46:45.648Z,30.5
2017-06-25T04:47:47.101Z,30.4
2017-06-25T04:48:49.240Z,30.5
2017-06-25T04:49:51.390Z,30.7
2017-06-25T04:50:52.846Z,30.8
2017-06-25T04:51:54.655Z,30.8
2017-06-25T04:52:56.456Z,31
2017-06-25T04:53:57.600Z,31
2017-06-25T04:54:59.386Z,31.1
2017-06-25T04:56:01.186Z,31.1
2017-06-25T04:57:02.656Z,31.2
2017-06-25T04:58:04.833Z,31.2
2017-06-25T04:59:06.286Z,31.3
2017-06-25T05:00:08.426Z,31.3
2017-06-25T05:01:10.211Z,31.3
2017-06-25T05:02:12.019Z,31.2
2017-06-25T05:03:14.167Z,31
2017-06-25T05:04:16.307Z,31.2
2017-06-25T05:05:18.456Z,31
2017-06-25T05:06:20.250Z,31
2017-06-25T05:07:22.069Z,31
2017-06-25T05:08:23.875Z,31
2017-06-25T05:09:26.015Z,31
2017-06-25T05:10:28.155Z,30.9
2017-06-25T05:11:30.306Z,30.9
2017-06-25T05:12:32.447Z,30.8
2017-06-25T05:13:34.585Z,30.9
2017-06-25T05:14:36.722Z,31
2017-06-25T05:15:38.170Z,31
2017-06-25T05:16:39.973Z,30.8
2017-06-25T05:17:41.866Z,30.9
2017-06-25T05:18:44.003Z,30.8
2017-06-25T05:19:45.808Z,30.8
2017-06-25T05:20:47.255Z,30.8
2017-06-25T05:21:49.064Z,30.8
2017-06-25T05:22:50.845Z,30.8
2017-06-25T05:23:52.314Z,30.8
2017-06-25T05:24:54.454Z,30.8
2017-06-25T05:25:56.591Z,30.8
2017-06-25T05:26:58.397Z,30.7
2017-06-25T05:28:00.202Z,30.8
2017-06-25T05:29:02.342Z,30.8
2017-06-25T05:30:04.480Z,30.8
2017-06-25T05:31:06.618Z,30.7
2017-06-25T05:32:08.403Z,30.8
2017-06-25T05:33:10.542Z,30.8
2017-06-25T05:34:12.331Z,30.8
2017-06-25T05:35:14.469Z,30.8
2017-06-25T05:36:16.272Z,30.8
2017-06-25T05:37:18.415Z,30.8
2017-06-25T05:38:20.222Z,30.8
2017-06-25T05:39:22.388Z,30.8
2017-06-25T05:40:23.500Z,30.8
2017-06-25T05:41:25.283Z,30.7
2017-06-25T05:42:27.423Z,30.8
2017-06-25T05:43:29.227Z,30.8
2017-06-25T05:44:31.042Z,30.8
2017-06-25T05:45:32.490Z,30.8
2017-06-25T05:46:34.633Z,30.8
2017-06-25T05:47:36.441Z,30.8
2017-06-25T05:48:38.249Z,30.8
2017-06-25T05:49:40.388Z,30.8
2017-06-25T05:50:42.526Z,30.8
2017-06-25T05:51:44.009Z,30.8
2017-06-25T05:52:46.244Z,30.8
2017-06-25T05:53:48.391Z,30.9
2017-06-25T05:54:49.842Z,30.8
2017-06-25T05:55:51.988Z,30.9
2017-06-25T05:56:54.125Z,30.9
2017-06-25T05:57:55.598Z,30.9
2017-06-25T05:58:57.738Z,30.9
2017-06-25T05:59:59.543Z,31
2017-06-25T06:01:00.993Z,31
2017-06-25T06:02:03.131Z,31
2017-06-25T06:03:05.270Z,31
2017-06-25T06:04:07.050Z,31
2017-06-25T06:05:08.857Z,30.9
2017-06-25T06:06:10.995Z,30.8
2017-06-25T06:07:12.799Z,30.9
2017-06-25T06:08:14.655Z,30.9
2017-06-25T06:09:15.767Z,30.9
2017-06-25T06:10:17.571Z,30.9
2017-06-25T06:11:19.028Z,30.9
2017-06-25T06:12:20.474Z,30.9
2017-06-25T06:13:22.263Z,30.9
2017-06-25T06:14:24.401Z,30.9
2017-06-25T06:15:26.540Z,30.9
2017-06-25T06:16:28.677Z,30.9
2017-06-25T06:17:30.817Z,30.8
2017-06-25T06:18:32.957Z,30.8
2017-06-25T06:19:34.430Z,30.9
2017-06-25T06:20:36.241Z,30.8
2017-06-25T06:21:38.032Z,30.8
2017-06-25T06:22:39.155Z,30.8
2017-06-25T06:23:40.628Z,30.9
2017-06-25T06:24:42.105Z,30.8
2017-06-25T06:25:44.244Z,30.9
2017-06-25T06:26:45.694Z,31
2017-06-25T06:27:47.504Z,30.8
2017-06-25T06:28:49.308Z,30.9
2017-06-25T06:29:50.767Z,30.8
2017-06-25T06:30:52.245Z,30.9
2017-06-25T06:31:54.052Z,30.9
2017-06-25T06:32:55.530Z,30.9
2017-06-25T06:33:57.674Z,30.9
2017-06-25T06:34:58.814Z,30.9
2017-06-25T06:36:00.954Z,30.9
2017-06-25T06:37:02.078Z,30.8
2017-06-25T06:38:03.534Z,30.9
2017-06-25T06:39:05.367Z,30.9
2017-06-25T06:40:06.491Z,30.9
2017-06-25T06:41:07.940Z,30.9
2017-06-25T06:42:09.729Z,31
2017-06-25T06:43:11.206Z,30.9
2017-06-25T06:44:13.345Z,31
2017-06-25T06:45:15.485Z,30.9
2017-06-25T06:46:16.954Z,31
2017-06-25T06:47:18.758Z,30.9
2017-06-25T06:48:19.899Z,30.9
2017-06-25T06:49:22.040Z,30.9
2017-06-25T06:50:23.849Z,30.9
2017-06-25T06:51:25.304Z,30.9
2017-06-25T06:52:27.112Z,30.9
2017-06-25T06:53:29.251Z,31
2017-06-25T06:54:31.060Z,31
2017-06-25T06:55:33.199Z,31
2017-06-25T06:56:35.342Z,30.9
2017-06-25T06:57:36.791Z,31
2017-06-25T06:58:38.605Z,31
2017-06-25T06:59:40.411Z,30.9
2017-06-25T07:00:41.885Z,31
2017-06-25T07:01:43.698Z,31
2017-06-25T07:02:45.507Z,31
2017-06-25T07:03:47.295Z,31
2017-06-25T07:04:49.431Z,31
2017-06-25T07:05:51.237Z,31
2017-06-25T07:06:53.379Z,31
2017-06-25T07:07:54.852Z,31.1
2017-06-25T07:08:56.660Z,31
2017-06-25T07:09:58.902Z,31
2017-06-25T07:11:00.686Z,31
2017-06-25T07:12:02.493Z,31
2017-06-25T07:13:04.274Z,31
2017-06-25T07:14:06.087Z,31
2017-06-25T07:15:07.893Z,31
2017-06-25T07:16:09.680Z,31
2017-06-25T07:17:11.485Z,31
2017-06-25T07:18:13.291Z,30.9
2017-06-25T07:19:14.766Z,31
2017-06-25T07:20:16.552Z,31
2017-06-25T07:21:18.691Z,31
2017-06-25T07:22:20.831Z,31
2017-06-25T07:23:22.637Z,31
2017-06-25T07:24:24.421Z,30.9
2017-06-25T07:25:26.234Z,30.9
2017-06-25T07:26:28.369Z,31
2017-06-25T07:27:30.176Z,30.9
2017-06-25T07:28:32.316Z,31
2017-06-25T07:29:33.792Z,30.9
2017-06-25T07:30:35.599Z,30.9
2017-06-25T07:31:37.075Z,30.9
2017-06-25T07:32:39.217Z,30.9
2017-06-25T07:33:41.023Z,30.9
2017-06-25T07:34:43.165Z,30.9
2017-06-25T07:35:45.307Z,31
2017-06-25T07:36:47.116Z,31
2017-06-25T07:37:48.589Z,31
2017-06-25T07:38:50.732Z,31
2017-06-25T07:39:52.871Z,31
2017-06-25T07:40:54.053Z,30.9
2017-06-25T07:41:55.863Z,30.8
2017-06-25T07:42:58.000Z,31
2017-06-25T07:44:00.141Z,31
2017-06-25T07:45:01.947Z,31
2017-06-25T07:46:03.521Z,30.9
2017-06-25T07:47:04.978Z,31
2017-06-25T07:48:06.780Z,30.9
2017-06-25T07:49:07.903Z,30.9
2017-06-25T07:50:09.706Z,31
2017-06-25T07:51:11.850Z,30.9
2017-06-25T07:52:13.657Z,30.9
2017-06-25T07:53:15.466Z,30.9
2017-06-25T07:54:17.244Z,31
2017-06-25T07:55:19.030Z,30.9
2017-06-25T07:56:21.270Z,31
2017-06-25T07:57:23.077Z,30.9
2017-06-25T07:58:24.882Z,31
2017-06-25T07:59:27.021Z,31
2017-06-25T08:00:29.165Z,31
2017-06-25T08:01:31.304Z,31
2017-06-25T08:02:32.779Z,31
2017-06-25T08:03:34.919Z,31
2017-06-25T08:04:36.371Z,31
2017-06-25T08:05:38.511Z,31
2017-06-25T08:06:39.985Z,31.1
2017-06-25T08:07:41.462Z,31
2017-06-25T08:08:43.602Z,31
2017-06-25T08:09:45.086Z,31
2017-06-25T08:10:47.227Z,31
2017-06-25T08:11:49.112Z,31.1
2017-06-25T08:12:50.899Z,31
2017-06-25T08:13:52.689Z,31.1
2017-06-25T08:14:53.831Z,31
2017-06-25T08:15:55.619Z,31.1
2017-06-25T08:16:56.740Z,31.1
2017-06-25T08:17:58.214Z,31.1
2017-06-25T08:19:00.024Z,31.2
2017-06-25T08:20:01.517Z,31.1
2017-06-25T08:21:02.952Z,31.2
2017-06-25T08:22:05.195Z,31.1
2017-06-25T08:23:07.333Z,31.1
2017-06-25T08:24:08.811Z,31.1
2017-06-25T08:25:10.617Z,31.2
2017-06-25T08:26:12.419Z,31.2
2017-06-25T08:27:14.561Z,31.2
2017-06-25T08:28:16.367Z,31.2
2017-06-25T08:29:18.507Z,31.1
2017-06-25T08:30:19.974Z,31.2
2017-06-25T08:31:22.116Z,31.2
2017-06-25T08:32:23.923Z,31.2
2017-06-25T08:33:25.734Z,31.2
2017-06-25T08:34:27.541Z,31.2
2017-06-25T08:35:29.349Z,31.2
2017-06-25T08:36:31.158Z,31.2
2017-06-25T08:37:32.966Z,31.2
2017-06-25T08:38:34.774Z,31.2
2017-06-25T08:39:35.918Z,31.2
2017-06-25T08:40:38.057Z,31.2
2017-06-25T08:41:40.203Z,31.1
2017-06-25T08:42:41.654Z,31.2
2017-06-25T08:43:43.126Z,31.2
2017-06-25T08:44:44.929Z,31.2
2017-06-25T08:45:46.743Z,31.3
2017-06-25T08:46:48.194Z,31.3
2017-06-25T08:47:50.333Z,31.3
2017-06-25T08:48:52.136Z,31.3
2017-06-25T08:49:53.941Z,31.2
2017-06-25T08:50:55.414Z,31.2
2017-06-25T08:51:57.558Z,31.2
2017-06-25T08:52:59.361Z,31.3
2017-06-25T08:54:01.501Z,31.2
2017-06-25T08:55:03.640Z,31.3
2017-06-25T08:56:05.783Z,31.3
2017-06-25T08:57:07.923Z,31.3
2017-06-25T08:58:09.735Z,31.3
2017-06-25T08:59:11.867Z,31.2
2017-06-25T09:00:14.005Z,31.2
2017-06-25T09:01:15.791Z,31.2
2017-06-25T09:02:17.597Z,31.3
2017-06-25T09:03:19.381Z,31.3
2017-06-25T09:04:21.200Z,31.3
2017-06-25T09:05:23.007Z,31.3
2017-06-25T09:06:25.149Z,31.3
2017-06-25T09:07:26.262Z,31.3
2017-06-25T09:08:28.049Z,31.3
2017-06-25T09:09:29.501Z,31.3
2017-06-25T09:10:31.639Z,31.3
2017-06-25T09:11:33.094Z,31.3
2017-06-25T09:12:35.230Z,31.3
2017-06-25T09:13:37.371Z,31.3
2017-06-25T09:14:38.844Z,31.4
2017-06-25T09:15:40.629Z,31.4
2017-06-25T09:16:42.436Z,31.3
2017-06-25T09:17:44.244Z,31.3
2017-06-25T09:18:46.054Z,31.3
2017-06-25T09:19:48.191Z,31.3
2017-06-25T09:20:50.330Z,31.3
2017-06-25T09:21:51.792Z,31.3
2017-06-25T09:22:52.910Z,31.4
2017-06-25T09:23:54.700Z,31.3
2017-06-25T09:24:56.506Z,31.3
2017-06-25T09:25:57.978Z,31.3
2017-06-25T09:26:59.786Z,31.3
2017-06-25T09:28:01.927Z,31.3
2017-06-25T09:29:04.086Z,31.3
2017-06-25T09:30:05.881Z,31.3
2017-06-25T09:31:07.690Z,31.3
2017-06-25T09:32:09.497Z,31.3
2017-06-25T09:33:11.310Z,31.3
2017-06-25T09:34:13.450Z,31.3
2017-06-25T09:35:15.591Z,31.3
2017-06-25T09:36:17.379Z,31.2
2017-06-25T09:37:19.191Z,31.3
2017-06-25T09:38:21.333Z,31.3
2017-06-25T09:39:22.784Z,31.3
2017-06-25T09:40:24.253Z,31.3
2017-06-25T09:41:26.393Z,31.3
2017-06-25T09:42:28.534Z,31.3
2017-06-25T09:43:30.315Z,31.3
2017-06-25T09:44:32.458Z,31.3
2017-06-25T09:45:34.603Z,31.3
2017-06-25T09:46:36.744Z,31.3
2017-06-25T09:47:38.218Z,31.3
2017-06-25T09:48:39.668Z,31.3
2017-06-25T09:49:41.476Z,31.2
2017-06-25T09:50:43.277Z,31.2
2017-06-25T09:51:45.092Z,31.2
2017-06-25T09:52:46.543Z,31.2
2017-06-25T09:53:48.685Z,31.3
2017-06-25T09:54:50.492Z,31.3
2017-06-25T09:55:52.634Z,31.3
2017-06-25T09:56:54.111Z,31.2
2017-06-25T09:57:56.251Z,31.3
2017-06-25T09:58:57.369Z,31.2
2017-06-25T09:59:58.921Z,31.3
2017-06-25T10:01:01.061Z,31.3
2017-06-25T10:02:02.869Z,31.3
2017-06-25T10:03:05.008Z,31.3
2017-06-25T10:04:07.145Z,31.3
2017-06-25T10:05:08.954Z,31.3
2017-06-25T10:06:10.400Z,31.2
2017-06-25T10:07:12.540Z,31.3
2017-06-25T10:08:14.012Z,31.3
2017-06-25T10:09:15.468Z,31.3
2017-06-25T10:10:17.336Z,31.3
2017-06-25T10:11:19.462Z,31.3
2017-06-25T10:12:21.602Z,31.3
2017-06-25T10:13:23.053Z,31.3
2017-06-25T10:14:24.526Z,31.3
2017-06-25T10:15:25.979Z,31.3
2017-06-25T10:16:27.435Z,31.3
2017-06-25T10:17:29.248Z,31.3
2017-06-25T10:18:31.050Z,31.2
2017-06-25T10:19:33.188Z,31.2
2017-06-25T10:20:34.664Z,31.2
2017-06-25T10:21:36.806Z,31.3
2017-06-25T10:22:38.276Z,31.3
2017-06-25T10:23:40.085Z,31.3
2017-06-25T10:24:41.892Z,31.4
2017-06-25T10:25:43.031Z,31.3
2017-06-25T10:26:44.505Z,31.3
2017-06-25T10:27:46.306Z,31.3
2017-06-25T10:28:48.114Z,31.3
2017-06-25T10:29:50.253Z,31.4
2017-06-25T10:30:52.442Z,31.3
2017-06-25T10:31:53.559Z,31.4
2017-06-25T10:32:55.364Z,31.4
2017-06-25T10:33:56.480Z,31.4
2017-06-25T10:34:58.269Z,31.4
2017-06-25T10:36:00.510Z,31.4
2017-06-25T10:37:02.322Z,31.4
2017-06-25T10:38:04.121Z,31.4
2017-06-25T10:39:05.931Z,31.4
2017-06-25T10:40:08.069Z,31.5
2017-06-25T10:41:10.207Z,31.4
2017-06-25T10:42:12.358Z,31.5
2017-06-25T10:43:14.519Z,31.5
2017-06-25T10:44:16.651Z,31.4
2017-06-25T10:45:18.791Z,31.4
2017-06-25T10:46:20.596Z,31.5
2017-06-25T10:47:22.402Z,31.5
2017-06-25T10:48:24.545Z,31.4
2017-06-25T10:49:25.689Z,31.5
2017-06-25T10:50:27.495Z,31.4
2017-06-25T10:51:29.636Z,31.4
2017-06-25T10:52:31.446Z,31.6
2017-06-25T10:53:33.584Z,31.5
2017-06-25T10:54:35.061Z,31.5
2017-06-25T10:55:36.875Z,31.6
2017-06-25T10:56:38.678Z,31.6
2017-06-25T10:57:40.491Z,31.6
2017-06-25T10:58:42.638Z,31.6
2017-06-25T10:59:44.429Z,31.5
2017-06-25T11:00:46.233Z,31.4
2017-06-25T11:01:47.710Z,31.4
2017-06-25T11:02:49.517Z,31.5
2017-06-25T11:03:50.968Z,31.4
2017-06-25T11:04:53.114Z,31.4
2017-06-25T11:05:53.907Z,31.4
2017-06-25T11:06:54.690Z,31.4
2017-06-25T11:07:56.141Z,31.4
2017-06-25T11:08:58.280Z,31.5
2017-06-25T11:10:00.089Z,31.4
2017-06-25T11:11:01.897Z,31.5
2017-06-25T11:12:04.035Z,31.4
2017-06-25T11:13:05.843Z,31.5
2017-06-25T11:14:07.295Z,31.5
2017-06-25T11:15:09.078Z,31.5
2017-06-25T11:16:10.867Z,31.6
2017-06-25T11:17:12.341Z,31.6
2017-06-25T11:18:13.818Z,31.6
2017-06-25T11:19:15.627Z,31.6
2017-06-25T11:20:17.101Z,31.6
2017-06-25T11:21:18.580Z,31.6
2017-06-25T11:22:20.031Z,31.6
2017-06-25T11:23:22.172Z,31.6
2017-06-25T11:24:24.315Z,31.6
2017-06-25T11:25:25.767Z,31.7
2017-06-25T11:26:27.911Z,31.6
2017-06-25T11:27:30.049Z,31.6
2017-06-25T11:28:31.499Z,31.6
2017-06-25T11:29:33.304Z,31.6
2017-06-25T11:30:34.759Z,31.6
2017-06-25T11:31:36.570Z,31.6
2017-06-25T11:32:38.427Z,31.6
2017-06-25T11:33:40.210Z,31.6
2017-06-25T11:34:42.016Z,31.6
2017-06-25T11:35:43.825Z,31.7
2017-06-25T11:36:45.625Z,31.7
2017-06-25T11:37:47.439Z,31.7
2017-06-25T11:38:49.578Z,31.6
2017-06-25T11:39:51.717Z,31.7
2017-06-25T11:40:53.859Z,31.7
2017-06-25T11:41:55.646Z,31.7
2017-06-25T11:42:57.786Z,31.7
2017-06-25T11:43:59.927Z,31.7
2017-06-25T11:45:01.379Z,31.6
2017-06-25T11:46:02.834Z,31.7
2017-06-25T11:47:04.975Z,31.7
2017-06-25T11:48:06.553Z,31.7
2017-06-25T11:49:08.353Z,31.6
2017-06-25T11:50:10.161Z,31.7
2017-06-25T11:51:11.966Z,31.7
2017-06-25T11:52:13.777Z,31.7
2017-06-25T11:53:15.920Z,31.7
2017-06-25T11:54:18.064Z,31.6
2017-06-25T11:55:19.532Z,31.7
2017-06-25T11:56:21.340Z,31.7
2017-06-25T11:57:23.138Z,31.7
2017-06-25T11:58:24.592Z,31.8
2017-06-25T11:59:26.066Z,31.7
2017-06-25T12:00:27.875Z,31.7
2017-06-25T12:01:29.679Z,31.8
2017-06-25T12:02:31.131Z,31.7
2017-06-25T12:03:32.935Z,31.8
2017-06-25T12:04:34.744Z,31.8
2017-06-25T12:05:36.533Z,31.7
2017-06-25T12:06:38.670Z,31.9
2017-06-25T12:07:40.126Z,31.8
2017-06-25T12:08:41.932Z,31.8
2017-06-25T12:09:43.402Z,31.8
2017-06-25T12:10:45.209Z,31.9
2017-06-25T12:11:46.658Z,31.8
2017-06-25T12:12:47.442Z,31.8
2017-06-25T12:13:48.915Z,31.8
2017-06-25T12:14:50.032Z,31.8
2017-06-25T12:15:51.848Z,31.7
2017-06-25T12:16:53.322Z,31.8
2017-06-25T12:17:55.105Z,31.8
2017-06-25T12:18:57.246Z,31.8
2017-06-25T12:19:59.057Z,31.8
2017-06-25T12:21:00.508Z,31.8
2017-06-25T12:22:02.648Z,31.8
2017-06-25T12:23:04.463Z,31.8
2017-06-25T12:24:06.600Z,31.8
2017-06-25T12:25:08.411Z,31.8
2017-06-25T12:26:09.870Z,31.8
2017-06-25T12:27:11.675Z,31.9
2017-06-25T12:28:13.480Z,31.8
2017-06-25T12:29:14.933Z,31.8
2017-06-25T12:30:16.386Z,31.8
2017-06-25T12:31:18.523Z,31.8
2017-06-25T12:32:19.996Z,31.7
2017-06-25T12:33:21.135Z,31.7
2017-06-25T12:34:22.911Z,31.7
2017-06-25T12:35:24.717Z,31.8
2017-06-25T12:36:26.173Z,31.8
2017-06-25T12:37:27.651Z,31.8
2017-06-25T12:38:29.459Z,31.8
2017-06-25T12:39:30.925Z,31.9
2017-06-25T12:40:32.709Z,31.8
2017-06-25T12:41:34.519Z,31.9
2017-06-25T12:42:36.306Z,31.9
2017-06-25T12:43:37.764Z,31.9
2017-06-25T12:44:39.566Z,31.8
2017-06-25T12:45:41.376Z,31.8
2017-06-25T12:46:43.513Z,31.8
2017-06-25T12:47:44.989Z,31.9
2017-06-25T12:48:46.111Z,31.9
2017-06-25T12:49:47.914Z,31.9
2017-06-25T12:50:49.720Z,31.9
2017-06-25T12:51:51.531Z,31.8
2017-06-25T12:52:53.683Z,31.9
2017-06-25T12:53:55.469Z,31.9
2017-06-25T12:54:57.257Z,31.9
2017-06-25T12:55:59.066Z,31.9
2017-06-25T12:57:00.875Z,31.8
2017-06-25T12:58:01.995Z,31.9
2017-06-25T12:59:04.139Z,31.9
2017-06-25T13:00:05.616Z,31.9
2017-06-25T13:01:06.738Z,31.9
2017-06-25T13:02:08.247Z,31.9
2017-06-25T13:03:10.385Z,31.8
2017-06-25T13:04:12.528Z,31.9
2017-06-25T13:05:14.414Z,31.8
2017-06-25T13:06:16.224Z,31.9
2017-06-25T13:07:18.373Z,31.9
2017-06-25T13:08:19.819Z,31.9
2017-06-25T13:09:21.959Z,31.8
2017-06-25T13:10:24.098Z,31.8
2017-06-25T13:11:25.574Z,31.9
2017-06-25T13:12:27.380Z,31.7
2017-06-25T13:13:29.519Z,31.8
2017-06-25T13:14:31.303Z,31.7
2017-06-25T13:15:32.827Z,31.7
2017-06-25T13:16:34.275Z,31.7
2017-06-25T13:17:36.081Z,31.7
2017-06-25T13:18:37.556Z,31.7
2017-06-25T13:19:39.342Z,31.6
2017-06-25T13:20:41.148Z,31.7
2017-06-25T13:21:42.934Z,31.6
2017-06-25T13:22:44.051Z,31.7
2017-06-25T13:23:46.190Z,31.7
2017-06-25T13:24:47.311Z,31.7
2017-06-25T13:25:49.449Z,31.7
2017-06-25T13:26:51.589Z,31.7
2017-06-25T13:27:53.740Z,31.7
2017-06-25T13:28:55.187Z,31.7
2017-06-25T13:29:56.638Z,31.8
2017-06-25T13:30:58.834Z,31.7
2017-06-25T13:32:00.971Z,31.7
2017-06-25T13:33:03.109Z,31.7
2017-06-25T13:34:04.900Z,31.7
2017-06-25T13:35:07.042Z,31.8
2017-06-25T13:36:08.596Z,31.8
2017-06-25T13:37:10.735Z,31.8
2017-06-25T13:38:12.525Z,31.8
2017-06-25T13:39:14.669Z,31.9
2017-06-25T13:40:16.126Z,31.9
2017-06-25T13:41:17.239Z,31.9
2017-06-25T13:42:18.694Z,31.8
2017-06-25T13:43:20.503Z,31.8
2017-06-25T13:44:22.294Z,31.7
2017-06-25T13:45:24.100Z,31.8
2017-06-25T13:46:25.906Z,31.7
2017-06-25T13:47:27.713Z,31.7
2017-06-25T13:48:29.521Z,31.7
2017-06-25T13:49:30.995Z,31.7